Harrah, Washington
Current Conditions -  °F | °C
As of 9:53 PM on Saturday 25 Oct 2014 (Local Time) from KYKM Reporting Station
Clear Clear  
Wind Chill: 59°   Ceiling: Unl
Heat Index: 59°   Visibility: 10mi
Dew Point: 37°   Wind: 14mph
Humidity: 44%   Direction: 230°SW
Pressure: 29.57"   Gusts: 23mph
Location:  46.4°N, 120.54°W
Report Text: KYKM 260453Z 23012G20KT 10SM CLR 15/03 A2957 RMK AO2 PK WND 19028/0355 PRESRR SLP014 T01500028
Loading
Personal Weather Stations






























Interactive Weather Map
Tropical Storm Tracking
New forecast layout! Learn more

10-Day Weather Forecast

Advertisements
Track Severe Weather on mobile